createdAt,value
2023-03-17T00:02:06.841Z,3.64
2023-03-17T00:04:37.137Z,3.41
2023-03-17T00:07:05.803Z,3.37
2023-03-17T00:09:35.540Z,3.37
2023-03-17T00:12:10.871Z,3.37
2023-03-17T00:14:41.906Z,3.35
2023-03-17T00:17:12.001Z,3.36
2023-03-17T00:19:40.509Z,3.37
2023-03-17T00:22:17.898Z,3.33
2023-03-17T00:24:47.198Z,3.32
2023-03-17T00:27:18.343Z,3.37
2023-03-17T00:29:47.228Z,3.37
2023-03-17T00:32:18.785Z,3.35
2023-03-17T00:34:47.366Z,3.40
2023-03-17T00:37:17.489Z,3.36
2023-03-17T00:39:45.696Z,3.32
2023-03-17T00:42:15.676Z,3.31
2023-03-17T00:44:43.850Z,3.28
2023-03-17T00:47:16.540Z,3.29
2023-03-17T00:49:45.413Z,3.32
2023-03-17T00:52:15.644Z,3.31
2023-03-17T00:54:44.371Z,3.33
2023-03-17T00:57:12.814Z,3.36
2023-03-17T00:59:42.934Z,3.33
2023-03-17T01:02:13.557Z,3.30
2023-03-17T01:04:47.774Z,3.32
2023-03-17T01:07:22.722Z,3.30
2023-03-17T01:09:51.008Z,3.27
2023-03-17T01:12:20.604Z,3.23
2023-03-17T01:14:50.610Z,3.21
2023-03-17T01:17:19.619Z,3.22
2023-03-17T01:19:51.182Z,3.20
2023-03-17T01:22:19.641Z,3.21
2023-03-17T01:24:48.646Z,3.22
2023-03-17T01:27:19.303Z,3.28
2023-03-17T01:29:47.334Z,3.27
2023-03-17T01:32:16.478Z,3.23
2023-03-17T01:34:44.786Z,3.24
2023-03-17T01:37:15.198Z,3.28
2023-03-17T01:39:43.416Z,3.28
2023-03-17T01:42:31.975Z,3.21
2023-03-17T01:45:06.080Z,3.21
2023-03-17T01:47:34.975Z,3.26
2023-03-17T01:50:07.609Z,3.29
2023-03-17T01:52:39.915Z,3.23
2023-03-17T01:55:14.712Z,3.32
2023-03-17T01:57:51.838Z,3.49
2023-03-17T02:00:21.695Z,3.48
2023-03-17T02:02:53.150Z,3.40
2023-03-17T02:05:24.212Z,3.48
2023-03-17T02:07:53.785Z,3.51
2023-03-17T02:10:26.939Z,3.36
2023-03-17T02:12:57.097Z,3.30
2023-03-17T02:15:35.863Z,3.42
2023-03-17T02:18:06.831Z,3.50
2023-03-17T02:20:39.508Z,3.39
2023-03-17T02:23:11.983Z,3.39
2023-03-17T02:25:43.023Z,3.39
2023-03-17T02:28:14.334Z,3.48
2023-03-17T02:30:43.918Z,3.40
2023-03-17T02:33:12.972Z,3.45
2023-03-17T02:35:42.428Z,3.53
2023-03-17T02:38:12.997Z,3.58
2023-03-17T02:40:41.159Z,3.55
2023-03-17T02:43:09.827Z,3.52
2023-03-17T02:45:38.462Z,3.41
2023-03-17T02:48:07.288Z,3.43
2023-03-17T02:51:45.975Z,3.20
2023-03-17T02:54:15.746Z,3.21
2023-03-17T02:56:44.182Z,3.23
2023-03-17T02:59:18.499Z,3.27
2023-03-17T03:01:48.731Z,3.27
2023-03-17T03:04:19.342Z,3.27
2023-03-17T03:06:48.007Z,3.25
2023-03-17T03:09:17.871Z,3.25
2023-03-17T03:11:46.321Z,3.23
2023-03-17T03:14:16.066Z,3.20
2023-03-17T03:16:45.228Z,3.20
2023-03-17T03:19:15.146Z,3.22
2023-03-17T03:21:43.637Z,3.23
2023-03-17T03:24:12.109Z,3.22
2023-03-17T03:26:41.618Z,3.23
2023-03-17T03:29:09.900Z,3.25
2023-03-17T03:31:39.427Z,3.30
2023-03-17T03:34:07.877Z,3.24
2023-03-17T03:36:37.122Z,3.20
2023-03-17T03:39:05.286Z,3.26
2023-03-17T03:41:33.832Z,3.30
2023-03-17T03:44:02.829Z,3.27
2023-03-17T03:46:32.147Z,3.24
2023-03-17T03:49:01.326Z,3.26
2023-03-17T03:51:29.705Z,3.31
2023-03-17T03:53:58.020Z,3.31
2023-03-17T03:56:30.068Z,3.29
2023-03-17T03:58:58.429Z,3.30
2023-03-17T04:01:28.546Z,3.34
2023-03-17T04:03:56.932Z,3.34
2023-03-17T04:06:25.244Z,3.33
2023-03-17T04:08:57.864Z,3.29
2023-03-17T04:11:27.509Z,3.35
2023-03-17T04:13:55.867Z,3.48
2023-03-17T04:16:24.505Z,3.38
2023-03-17T04:18:53.102Z,3.23
2023-03-17T04:21:25.929Z,3.25
2023-03-17T04:23:54.340Z,3.29
2023-03-17T04:26:23.803Z,3.23
2023-03-17T04:28:52.712Z,3.24
2023-03-17T04:31:21.403Z,3.29
2023-03-17T04:33:49.861Z,3.26
2023-03-17T04:36:21.940Z,3.27
2023-03-17T04:38:52.785Z,3.24
2023-03-17T04:41:21.475Z,3.21
2023-03-17T04:43:49.788Z,3.28
2023-03-17T04:46:19.380Z,3.30
2023-03-17T04:48:48.083Z,3.31
2023-03-17T04:51:17.322Z,3.28
2023-03-17T04:53:46.520Z,3.35
2023-03-17T04:56:14.828Z,3.39
2023-03-17T04:58:45.848Z,3.40
2023-03-17T05:01:14.688Z,3.41
2023-03-17T05:03:43.416Z,3.44
2023-03-17T05:06:12.136Z,3.45
2023-03-17T05:08:40.795Z,3.45
2023-03-17T05:11:09.602Z,3.43
2023-03-17T05:13:43.315Z,3.44
2023-03-17T05:16:12.233Z,3.48
2023-03-17T05:18:42.144Z,3.52
2023-03-17T05:21:10.481Z,3.56
2023-03-17T05:23:39.050Z,3.55
2023-03-17T05:26:07.444Z,3.52
2023-03-17T05:28:37.938Z,3.54
2023-03-17T05:31:07.673Z,3.60
2023-03-17T05:33:37.385Z,3.62
2023-03-17T05:36:06.513Z,3.65
2023-03-17T05:38:36.167Z,3.56
2023-03-17T05:41:05.696Z,3.48
2023-03-17T05:43:34.180Z,3.51
2023-03-17T05:46:02.274Z,3.58
2023-03-17T05:48:32.369Z,3.61
2023-03-17T05:51:01.219Z,3.61
2023-03-17T05:53:29.847Z,3.61
2023-03-17T05:55:58.004Z,3.58
2023-03-17T05:58:26.805Z,3.59
2023-03-17T06:00:58.303Z,3.63
2023-03-17T06:03:26.968Z,3.65
2023-03-17T06:05:55.539Z,3.64
2023-03-17T06:08:23.713Z,3.61
2023-03-17T06:10:53.969Z,3.59
2023-03-17T06:13:22.418Z,3.71
2023-03-17T06:15:52.723Z,3.69
2023-03-17T06:18:21.636Z,3.65
2023-03-17T06:20:50.426Z,3.63
2023-03-17T06:23:21.809Z,3.61
2023-03-17T06:25:50.586Z,3.65
2023-03-17T06:28:18.844Z,3.67
2023-03-17T06:30:47.550Z,3.67
2023-03-17T06:33:18.430Z,3.65
2023-03-17T06:35:47.869Z,3.64
2023-03-17T06:38:18.196Z,3.71
2023-03-17T06:40:51.070Z,3.80
2023-03-17T06:43:20.062Z,3.83
2023-03-17T06:45:48.155Z,3.87
2023-03-17T06:48:18.269Z,3.86
2023-03-17T06:50:50.314Z,3.84
2023-03-17T06:53:19.455Z,3.83
2023-03-17T06:55:48.648Z,3.90
2023-03-17T06:58:17.608Z,3.98
2023-03-17T07:00:46.091Z,3.98
2023-03-17T07:03:14.949Z,3.97
2023-03-17T07:05:47.664Z,3.93
2023-03-17T07:08:16.258Z,3.98
2023-03-17T07:10:45.985Z,4.00
2023-03-17T07:13:18.029Z,3.98
2023-03-17T07:15:46.426Z,3.94
2023-03-17T07:18:20.842Z,3.86
2023-03-17T07:20:50.649Z,3.91
2023-03-17T07:23:21.185Z,3.98
2023-03-17T07:25:50.461Z,4.04
2023-03-17T07:28:22.015Z,3.96
2023-03-17T07:30:53.387Z,3.91
2023-03-17T07:33:21.971Z,3.89
2023-03-17T07:35:50.997Z,3.96
2023-03-17T07:38:20.144Z,4.00
2023-03-17T07:40:49.067Z,4.03
2023-03-17T07:43:19.358Z,4.08
2023-03-17T07:45:48.399Z,4.09
2023-03-17T07:48:19.096Z,4.09
2023-03-17T07:50:48.594Z,4.14
2023-03-17T07:53:17.178Z,4.20
2023-03-17T07:55:48.826Z,4.20
2023-03-17T07:58:17.255Z,4.24
2023-03-17T08:00:48.655Z,4.16
2023-03-17T08:03:19.725Z,4.13
2023-03-17T08:05:53.425Z,4.15
2023-03-17T08:08:27.763Z,4.12
2023-03-17T08:11:03.816Z,4.12
2023-03-17T08:13:33.000Z,4.09
2023-03-17T08:16:03.986Z,4.10
2023-03-17T08:18:34.287Z,4.10
2023-03-17T08:21:02.536Z,4.16
2023-03-17T08:23:31.173Z,4.20
2023-03-17T08:26:00.846Z,4.21
2023-03-17T08:28:31.570Z,4.19
2023-03-17T08:31:13.974Z,4.19
2023-03-17T08:33:42.654Z,4.18
2023-03-17T08:36:11.533Z,4.21
2023-03-17T08:38:42.006Z,4.28
2023-03-17T08:41:18.305Z,4.28
2023-03-17T08:43:48.045Z,4.25
2023-03-17T08:46:17.187Z,4.23
2023-03-17T08:48:48.316Z,4.23
2023-03-17T08:51:18.912Z,4.30
2023-03-17T08:53:51.620Z,4.39
2023-03-17T08:56:20.097Z,4.41
2023-03-17T08:58:48.399Z,4.42
2023-03-17T09:01:17.660Z,4.42
2023-03-17T09:03:45.796Z,4.43
2023-03-17T09:06:17.038Z,4.43
2023-03-17T09:08:47.911Z,4.41
2023-03-17T09:11:17.875Z,4.44
2023-03-17T09:13:47.594Z,4.47
2023-03-17T09:16:19.001Z,4.52
2023-03-17T09:18:47.021Z,4.50
2023-03-17T09:21:16.428Z,4.49
2023-03-17T09:23:44.645Z,4.49
2023-03-17T09:26:12.918Z,4.49
2023-03-17T09:28:41.189Z,4.47
2023-03-17T09:31:11.924Z,4.44
2023-03-17T09:33:41.867Z,4.41
2023-03-17T09:36:11.211Z,4.41
2023-03-17T09:38:39.630Z,4.44
2023-03-17T09:41:18.155Z,4.43
2023-03-17T09:44:22.288Z,4.41
2023-03-17T09:47:07.266Z,4.39
2023-03-17T09:49:49.881Z,4.41
2023-03-17T09:52:23.954Z,4.43
2023-03-17T09:54:52.330Z,4.37
2023-03-17T09:57:37.190Z,4.28
2023-03-17T10:00:16.231Z,4.24
2023-03-17T10:02:44.554Z,4.25
2023-03-17T10:05:26.582Z,4.26
2023-03-17T10:08:30.553Z,4.26
2023-03-17T10:11:17.530Z,4.27
2023-03-17T10:14:02.495Z,4.34
2023-03-17T10:16:48.613Z,4.37
2023-03-17T10:19:29.203Z,4.34
2023-03-17T10:22:25.573Z,4.28
2023-03-17T10:24:56.996Z,4.33
2023-03-17T10:27:31.978Z,4.33
2023-03-17T10:30:00.675Z,4.36
2023-03-17T10:32:31.256Z,4.32
2023-03-17T10:34:59.582Z,4.29
2023-03-17T10:37:29.899Z,4.36
2023-03-17T10:40:00.176Z,4.40
2023-03-17T10:42:30.553Z,4.43
2023-03-17T10:45:01.899Z,4.42
2023-03-17T10:47:30.521Z,4.41
2023-03-17T10:50:40.136Z,4.43
2023-03-17T10:53:18.336Z,4.41
2023-03-17T10:55:51.954Z,4.37
2023-03-17T10:58:47.151Z,4.38
2023-03-17T11:01:29.620Z,4.40
2023-03-17T11:03:58.110Z,4.39
2023-03-17T11:06:38.099Z,4.35
2023-03-17T11:09:09.769Z,4.33
2023-03-17T11:11:46.226Z,4.36
2023-03-17T11:14:16.287Z,4.37
2023-03-17T11:16:55.581Z,4.34
2023-03-17T11:19:31.836Z,4.43
2023-03-17T11:22:10.132Z,4.70
2023-03-17T11:25:04.506Z,4.74
2023-03-17T11:28:02.663Z,4.71
2023-03-17T11:30:33.082Z,4.60
2023-03-17T11:33:23.127Z,4.42
2023-03-17T11:35:54.896Z,4.43
2023-03-17T11:38:28.447Z,4.40
2023-03-17T11:41:46.234Z,4.39
2023-03-17T11:44:21.466Z,4.43
2023-03-17T11:47:09.305Z,4.43
2023-03-17T11:49:39.932Z,4.37
2023-03-17T11:52:19.900Z,4.34
2023-03-17T11:55:16.730Z,4.33
2023-03-17T11:57:58.829Z,4.38
2023-03-17T12:00:35.203Z,4.41
2023-03-17T12:03:27.705Z,4.43
2023-03-17T12:05:58.807Z,4.44
2023-03-17T12:08:45.779Z,4.43
2023-03-17T12:11:17.452Z,4.43
2023-03-17T12:13:52.408Z,4.40
2023-03-17T12:16:28.186Z,4.39
2023-03-17T12:19:11.583Z,4.42
2023-03-17T12:21:46.092Z,4.44
2023-03-17T12:24:28.880Z,4.46
2023-03-17T12:27:05.263Z,4.45
2023-03-17T12:29:43.385Z,4.48
2023-03-17T12:32:25.444Z,4.52
2023-03-17T12:35:02.692Z,4.51
2023-03-17T12:37:31.100Z,4.45
2023-03-17T12:40:15.286Z,4.48
2023-03-17T12:43:11.331Z,4.51
2023-03-17T12:45:48.926Z,4.52
2023-03-17T12:48:42.708Z,4.51
2023-03-17T12:51:22.956Z,4.54
2023-03-17T12:53:52.158Z,4.52
2023-03-17T12:56:30.372Z,4.50
2023-03-17T12:59:02.859Z,4.44
2023-03-17T13:01:43.379Z,4.46
2023-03-17T13:04:15.076Z,4.47
2023-03-17T13:07:19.174Z,4.46
2023-03-17T13:09:50.218Z,4.44
2023-03-17T13:12:44.824Z,4.48
2023-03-17T13:15:38.455Z,4.49
2023-03-17T13:18:34.209Z,4.49
2023-03-17T13:21:06.064Z,4.50
2023-03-17T13:23:53.410Z,4.58
2023-03-17T13:26:23.138Z,4.63
2023-03-17T13:28:52.381Z,4.65
2023-03-17T13:31:37.184Z,4.66
2023-03-17T13:34:12.973Z,4.74
2023-03-17T13:36:49.398Z,4.85
2023-03-17T13:39:41.330Z,4.90
2023-03-17T13:42:20.876Z,4.90
2023-03-17T13:45:18.128Z,4.84
2023-03-17T13:47:47.492Z,4.83
2023-03-17T13:50:25.626Z,4.84
2023-03-17T13:52:58.350Z,4.83
2023-03-17T13:55:36.502Z,4.82
2023-03-17T13:58:11.136Z,4.83
2023-03-17T14:00:44.524Z,4.90
2023-03-17T14:03:29.733Z,4.92
2023-03-17T14:05:59.062Z,4.92
2023-03-17T14:08:29.701Z,4.92
2023-03-17T14:11:00.815Z,4.90
2023-03-17T14:13:40.834Z,4.93
2023-03-17T14:16:34.580Z,4.99
2023-03-17T14:19:33.570Z,5.04
2023-03-17T14:22:18.989Z,5.05
2023-03-17T14:24:51.786Z,5.08
2023-03-17T14:27:21.279Z,5.07
2023-03-17T14:29:49.504Z,5.10
2023-03-17T14:32:19.375Z,5.12
2023-03-17T14:34:56.415Z,5.09
2023-03-17T14:37:24.542Z,5.06
2023-03-17T14:39:55.063Z,5.03
2023-03-17T14:42:30.677Z,5.00
2023-03-17T14:45:08.397Z,5.04
2023-03-17T14:47:39.170Z,5.09
2023-03-17T14:50:31.312Z,5.12
2023-03-17T14:52:59.818Z,5.12
2023-03-17T14:55:54.137Z,5.08
2023-03-17T14:58:42.994Z,5.04
2023-03-17T15:01:18.824Z,5.02
2023-03-17T15:03:57.359Z,5.08
2023-03-17T15:06:30.084Z,5.15
2023-03-17T15:09:46.181Z,5.07
2023-03-17T15:12:18.731Z,5.16
2023-03-17T15:14:46.919Z,5.14
2023-03-17T15:17:21.636Z,5.09
2023-03-17T15:19:52.934Z,5.02
2023-03-17T15:22:28.527Z,5.04
2023-03-17T15:24:59.881Z,5.10
2023-03-17T15:27:29.504Z,5.13
2023-03-17T15:29:58.584Z,5.10
2023-03-17T15:32:27.128Z,5.07
2023-03-17T15:34:57.491Z,5.04
2023-03-17T15:37:29.891Z,5.01
2023-03-17T15:39:59.706Z,5.03
2023-03-17T15:42:31.758Z,5.09
2023-03-17T15:45:02.029Z,5.13
2023-03-17T15:47:32.415Z,5.15
2023-03-17T15:50:25.023Z,5.13
2023-03-17T15:52:56.414Z,5.07
2023-03-17T15:55:26.608Z,5.03
2023-03-17T15:57:55.980Z,5.03
2023-03-17T16:00:25.621Z,5.08
2023-03-17T16:02:54.625Z,5.13
2023-03-17T16:05:25.211Z,5.16
2023-03-17T16:07:54.563Z,5.18
2023-03-17T16:10:29.313Z,5.18
2023-03-17T16:12:57.853Z,5.18
2023-03-17T16:15:32.088Z,5.21
2023-03-17T16:18:05.033Z,5.23
2023-03-17T16:20:34.204Z,5.18
2023-03-17T16:23:32.194Z,5.11
2023-03-17T16:26:13.610Z,5.03
2023-03-17T16:28:46.396Z,5.03
2023-03-17T16:31:18.111Z,5.01
2023-03-17T16:33:46.454Z,4.98
2023-03-17T16:36:17.166Z,4.95
2023-03-17T16:38:46.274Z,4.92
2023-03-17T16:41:19.966Z,4.95
2023-03-17T16:43:53.883Z,4.95
2023-03-17T16:46:22.913Z,4.92
2023-03-17T16:48:52.793Z,4.89
2023-03-17T16:51:21.539Z,4.87
2023-03-17T16:53:50.264Z,4.89
2023-03-17T16:56:20.766Z,4.92
2023-03-17T16:58:52.136Z,4.91
2023-03-17T17:01:26.255Z,4.90
2023-03-17T17:03:54.737Z,4.88
2023-03-17T17:06:26.832Z,4.89
2023-03-17T17:08:55.696Z,4.92
2023-03-17T17:11:23.777Z,4.90
2023-03-17T17:13:53.585Z,4.88
2023-03-17T17:16:30.299Z,4.85
2023-03-17T17:18:59.424Z,4.85
2023-03-17T17:21:28.780Z,4.91
2023-03-17T17:23:57.448Z,4.95
2023-03-17T17:26:27.699Z,4.97
2023-03-17T17:28:56.303Z,4.98
2023-03-17T17:31:25.450Z,4.97
2023-03-17T17:33:54.136Z,4.99
2023-03-17T17:36:22.927Z,5.06
2023-03-17T17:38:52.184Z,5.09
2023-03-17T17:41:23.276Z,5.09
2023-03-17T17:43:53.854Z,5.06
2023-03-17T17:46:23.632Z,5.04
2023-03-17T17:48:52.503Z,5.07
2023-03-17T17:51:21.386Z,5.10
2023-03-17T17:53:51.715Z,5.08
2023-03-17T17:56:20.295Z,5.04
2023-03-17T17:58:50.315Z,5.03
2023-03-17T18:01:22.103Z,5.01
2023-03-17T18:03:54.954Z,5.06
2023-03-17T18:06:23.850Z,5.13
2023-03-17T18:08:52.539Z,5.13
2023-03-17T18:11:23.072Z,5.12
2023-03-17T18:13:51.546Z,5.11
2023-03-17T18:16:19.802Z,5.09
2023-03-17T18:18:52.401Z,5.13
2023-03-17T18:21:21.603Z,5.18
2023-03-17T18:23:50.284Z,5.20
2023-03-17T18:26:20.809Z,5.21
2023-03-17T18:28:49.343Z,5.21
2023-03-17T18:31:23.538Z,5.20
2023-03-17T18:33:54.068Z,5.16
2023-03-17T18:36:22.584Z,5.18
2023-03-17T18:38:51.512Z,5.24
2023-03-17T18:41:19.696Z,5.27
2023-03-17T18:43:47.863Z,5.29
2023-03-17T18:46:17.644Z,5.30
2023-03-17T18:48:46.158Z,5.31
2023-03-17T18:51:14.550Z,5.31
2023-03-17T18:53:43.121Z,5.32
2023-03-17T18:56:12.227Z,5.39
2023-03-17T18:58:41.925Z,5.39
2023-03-17T19:01:10.436Z,5.37
2023-03-17T19:03:40.777Z,5.35
2023-03-17T19:06:12.288Z,5.32
2023-03-17T19:08:40.458Z,5.29
2023-03-17T19:11:09.657Z,5.31
2023-03-17T19:13:38.143Z,5.37
2023-03-17T19:16:11.422Z,5.39
2023-03-17T19:18:42.893Z,5.39
2023-03-17T19:21:11.565Z,5.39
2023-03-17T19:23:43.959Z,5.38
2023-03-17T19:26:13.039Z,5.36
2023-03-17T19:28:41.159Z,5.33
2023-03-17T19:31:09.746Z,5.37
2023-03-17T19:33:38.560Z,5.44
2023-03-17T19:36:11.885Z,5.48
2023-03-17T19:38:43.550Z,5.49
2023-03-17T19:41:15.913Z,5.45
2023-03-17T19:43:44.186Z,5.42
2023-03-17T19:46:12.659Z,5.40
2023-03-17T19:48:44.120Z,5.38
2023-03-17T19:51:12.916Z,5.42
2023-03-17T19:53:45.872Z,5.48
2023-03-17T19:56:15.424Z,5.54
2023-03-17T19:58:43.691Z,5.56
2023-03-17T20:01:12.323Z,5.53
2023-03-17T20:03:42.791Z,5.51
2023-03-17T20:06:17.421Z,5.50
2023-03-17T20:08:45.899Z,5.52
2023-03-17T20:11:14.189Z,5.51
2023-03-17T20:13:42.768Z,5.50
2023-03-17T20:16:12.523Z,5.53
2023-03-17T20:18:41.066Z,5.61
2023-03-17T20:21:14.061Z,5.67
2023-03-17T20:23:42.422Z,5.71
2023-03-17T20:26:10.698Z,5.72
2023-03-17T20:28:39.836Z,5.72
2023-03-17T20:31:08.342Z,5.71
2023-03-17T20:33:56.942Z,5.70
2023-03-17T20:36:26.156Z,5.69
2023-03-17T20:38:54.409Z,5.69
2023-03-17T20:41:23.605Z,5.63
2023-03-17T20:43:52.321Z,5.62
2023-03-17T20:46:22.665Z,5.67
2023-03-17T20:48:52.429Z,5.72
2023-03-17T20:51:20.603Z,5.77
2023-03-17T20:53:49.182Z,5.79
2023-03-17T20:56:19.992Z,5.79
2023-03-17T20:58:51.061Z,5.77
2023-03-17T21:01:21.292Z,5.75
2023-03-17T21:03:50.271Z,5.74
2023-03-17T21:06:19.790Z,5.71
2023-03-17T21:08:48.147Z,5.72
2023-03-17T21:11:23.185Z,5.78
2023-03-17T21:13:52.296Z,5.82
2023-03-17T21:16:22.688Z,5.82
2023-03-17T21:18:56.184Z,5.79
2023-03-17T21:21:25.155Z,5.76
2023-03-17T21:23:54.009Z,5.71
2023-03-17T21:26:24.253Z,5.66
2023-03-17T21:28:52.708Z,5.67
2023-03-17T21:31:21.732Z,5.71
2023-03-17T21:33:50.871Z,5.73
2023-03-17T21:36:21.071Z,5.75
2023-03-17T21:38:49.611Z,5.76
2023-03-17T21:41:23.112Z,5.75
2023-03-17T21:43:59.065Z,5.73
2023-03-17T21:46:27.849Z,5.69
2023-03-17T21:48:56.227Z,5.70
2023-03-17T21:51:24.712Z,5.74
2023-03-17T21:53:54.129Z,5.76
2023-03-17T21:56:22.292Z,5.74
2023-03-17T21:58:50.463Z,5.72
2023-03-17T22:01:18.989Z,5.70
2023-03-17T22:03:47.985Z,5.66
2023-03-17T22:06:16.932Z,5.62
2023-03-17T22:08:45.994Z,5.65
2023-03-17T22:11:16.155Z,5.69
2023-03-17T22:13:44.644Z,5.69
2023-03-17T22:16:17.635Z,5.68
2023-03-17T22:18:48.150Z,5.64
2023-03-17T22:21:16.225Z,5.62
2023-03-17T22:23:46.556Z,5.57
2023-03-17T22:26:17.029Z,5.51
2023-03-17T22:28:50.900Z,5.45
2023-03-17T22:31:22.020Z,5.49
2023-03-17T22:33:52.624Z,5.54
2023-03-17T22:36:22.812Z,5.54
2023-03-17T22:38:50.971Z,5.54
2023-03-17T22:41:25.036Z,5.53
2023-03-17T22:43:53.445Z,5.48
2023-03-17T22:46:21.833Z,5.45
2023-03-17T22:48:52.160Z,5.42
2023-03-17T22:51:22.789Z,5.40
2023-03-17T22:53:56.078Z,5.43
2023-03-17T22:56:26.332Z,5.48
2023-03-17T22:58:55.091Z,5.51
2023-03-17T23:01:26.099Z,5.52
2023-03-17T23:03:54.694Z,5.54
2023-03-17T23:06:28.475Z,5.55
2023-03-17T23:08:57.892Z,5.55
2023-03-17T23:11:26.302Z,5.52
2023-03-17T23:13:55.707Z,5.51
2023-03-17T23:16:23.723Z,5.56
2023-03-17T23:18:52.809Z,5.65
2023-03-17T23:21:23.119Z,5.73
2023-03-17T23:23:51.486Z,5.76
2023-03-17T23:26:19.508Z,5.79
2023-03-17T23:28:47.934Z,5.81
2023-03-17T23:31:19.409Z,5.83
2023-03-17T23:33:50.063Z,5.80
2023-03-17T23:36:18.594Z,5.75
2023-03-17T23:38:49.128Z,5.67
2023-03-17T23:41:18.834Z,5.61
2023-03-17T23:43:47.009Z,5.62
2023-03-17T23:46:15.517Z,5.67
2023-03-17T23:48:44.803Z,5.69
2023-03-17T23:51:13.676Z,5.68
2023-03-17T23:53:42.058Z,5.68
2023-03-17T23:56:13.512Z,5.67
2023-03-17T23:58:43.570Z,5.64
